sensor_id;sensor_type;location;lat;lon;timestamp;temperature;humidity
15455;DHT22;21057;51.024;7.540;2022-07-25T00:01:35;23.00;78.20
15455;DHT22;21057;51.024;7.540;2022-07-25T00:04:02;22.90;78.50
15455;DHT22;21057;51.024;7.540;2022-07-25T00:06:29;22.90;77.80
15455;DHT22;21057;51.024;7.540;2022-07-25T00:08:56;22.90;77.40
15455;DHT22;21057;51.024;7.540;2022-07-25T00:11:23;22.80;76.80
15455;DHT22;21057;51.024;7.540;2022-07-25T00:13:50;22.80;76.90
15455;DHT22;21057;51.024;7.540;2022-07-25T00:16:18;22.80;80.00
15455;DHT22;21057;51.024;7.540;2022-07-25T00:18:45;22.60;82.80
15455;DHT22;21057;51.024;7.540;2022-07-25T00:21:12;22.50;83.90
15455;DHT22;21057;51.024;7.540;2022-07-25T00:23:39;22.30;84.00
15455;DHT22;21057;51.024;7.540;2022-07-25T00:26:06;22.20;83.80
15455;DHT22;21057;51.024;7.540;2022-07-25T00:28:33;22.10;83.50
15455;DHT22;21057;51.024;7.540;2022-07-25T00:31:00;22.00;83.10
15455;DHT22;21057;51.024;7.540;2022-07-25T00:33:28;21.90;85.30
15455;DHT22;21057;51.024;7.540;2022-07-25T00:35:55;21.80;85.60
15455;DHT22;21057;51.024;7.540;2022-07-25T00:38:22;21.80;84.00
15455;DHT22;21057;51.024;7.540;2022-07-25T00:40:49;21.90;82.50
15455;DHT22;21057;51.024;7.540;2022-07-25T00:43:16;21.90;81.80
15455;DHT22;21057;51.024;7.540;2022-07-25T00:45:42;22.00;81.20
15455;DHT22;21057;51.024;7.540;2022-07-25T00:48:09;22.00;80.80
15455;DHT22;21057;51.024;7.540;2022-07-25T00:50:38;22.10;81.00
15455;DHT22;21057;51.024;7.540;2022-07-25T00:53:05;22.10;79.90
15455;DHT22;21057;51.024;7.540;2022-07-25T00:55:32;22.30;79.00
15455;DHT22;21057;51.024;7.540;2022-07-25T00:57:59;22.30;79.40
15455;DHT22;21057;51.024;7.540;2022-07-25T01:00:26;22.30;83.10
15455;DHT22;21057;51.024;7.540;2022-07-25T01:02:53;22.20;85.00
15455;DHT22;21057;51.024;7.540;2022-07-25T01:05:20;22.00;86.20
15455;DHT22;21057;51.024;7.540;2022-07-25T01:07:48;21.90;87.70
15455;DHT22;21057;51.024;7.540;2022-07-25T01:10:16;21.60;88.60
15455;DHT22;21057;51.024;7.540;2022-07-25T01:12:46;21.50;89.60
15455;DHT22;21057;51.024;7.540;2022-07-25T01:15:14;21.30;90.30
15455;DHT22;21057;51.024;7.540;2022-07-25T01:17:41;21.20;90.90
15455;DHT22;21057;51.024;7.540;2022-07-25T01:20:13;21.20;91.40
15455;DHT22;21057;51.024;7.540;2022-07-25T01:22:40;21.00;91.50
15455;DHT22;21057;51.024;7.540;2022-07-25T01:25:08;20.90;91.40
15455;DHT22;21057;51.024;7.540;2022-07-25T01:27:35;20.90;90.90
15455;DHT22;21057;51.024;7.540;2022-07-25T01:30:04;21.10;88.30
15455;DHT22;21057;51.024;7.540;2022-07-25T01:32:31;21.20;87.70
15455;DHT22;21057;51.024;7.540;2022-07-25T01:34:58;21.40;87.00
15455;DHT22;21057;51.024;7.540;2022-07-25T01:37:26;21.40;90.30
15455;DHT22;21057;51.024;7.540;2022-07-25T01:39:53;21.30;89.80
15455;DHT22;21057;51.024;7.540;2022-07-25T01:42:20;21.30;88.70
15455;DHT22;21057;51.024;7.540;2022-07-25T01:44:47;21.20;90.00
15455;DHT22;21057;51.024;7.540;2022-07-25T01:47:14;21.20;90.00
15455;DHT22;21057;51.024;7.540;2022-07-25T01:49:42;21.10;90.90
15455;DHT22;21057;51.024;7.540;2022-07-25T01:52:09;21.00;91.90
15455;DHT22;21057;51.024;7.540;2022-07-25T01:54:38;20.90;91.10
15455;DHT22;21057;51.024;7.540;2022-07-25T01:57:05;20.90;90.50
15455;DHT22;21057;51.024;7.540;2022-07-25T01:59:35;20.90;90.80
15455;DHT22;21057;51.024;7.540;2022-07-25T02:02:03;20.90;90.40
15455;DHT22;21057;51.024;7.540;2022-07-25T02:04:30;21.00;89.40
15455;DHT22;21057;51.024;7.540;2022-07-25T02:06:57;20.90;90.00
15455;DHT22;21057;51.024;7.540;2022-07-25T02:09:24;21.00;89.50
15455;DHT22;21057;51.024;7.540;2022-07-25T02:11:52;21.10;87.70
15455;DHT22;21057;51.024;7.540;2022-07-25T02:14:19;21.20;88.10
15455;DHT22;21057;51.024;7.540;2022-07-25T02:16:47;21.30;87.20
15455;DHT22;21057;51.024;7.540;2022-07-25T02:19:14;21.30;86.80
15455;DHT22;21057;51.024;7.540;2022-07-25T02:21:41;21.30;86.20
15455;DHT22;21057;51.024;7.540;2022-07-25T02:24:08;21.40;86.20
15455;DHT22;21057;51.024;7.540;2022-07-25T02:26:35;21.50;84.90
15455;DHT22;21057;51.024;7.540;2022-07-25T02:29:03;21.60;85.40
15455;DHT22;21057;51.024;7.540;2022-07-25T02:31:30;21.60;86.00
15455;DHT22;21057;51.024;7.540;2022-07-25T02:33:57;21.50;89.50
15455;DHT22;21057;51.024;7.540;2022-07-25T02:36:24;21.50;88.60
15455;DHT22;21057;51.024;7.540;2022-07-25T02:38:51;21.30;90.60
15455;DHT22;21057;51.024;7.540;2022-07-25T02:41:18;21.10;90.90
15455;DHT22;21057;51.024;7.540;2022-07-25T02:43:45;21.10;90.70
15455;DHT22;21057;51.024;7.540;2022-07-25T02:46:13;20.90;90.90
15455;DHT22;21057;51.024;7.540;2022-07-25T02:48:40;20.80;91.50
15455;DHT22;21057;51.024;7.540;2022-07-25T02:51:07;20.80;92.20
15455;DHT22;21057;51.024;7.540;2022-07-25T02:53:34;20.80;90.30
15455;DHT22;21057;51.024;7.540;2022-07-25T02:56:01;20.90;90.00
15455;DHT22;21057;51.024;7.540;2022-07-25T02:58:28;21.00;89.20
15455;DHT22;21057;51.024;7.540;2022-07-25T03:00:55;21.10;89.00
15455;DHT22;21057;51.024;7.540;2022-07-25T03:03:24;21.10;88.40
15455;DHT22;21057;51.024;7.540;2022-07-25T03:05:51;21.20;88.60
15455;DHT22;21057;51.024;7.540;2022-07-25T03:08:18;21.20;88.80
15455;DHT22;21057;51.024;7.540;2022-07-25T03:10:45;21.10;88.90
15455;DHT22;21057;51.024;7.540;2022-07-25T03:13:12;21.20;89.30
15455;DHT22;21057;51.024;7.540;2022-07-25T03:15:39;21.20;87.80
15455;DHT22;21057;51.024;7.540;2022-07-25T03:18:06;21.40;89.50
15455;DHT22;21057;51.024;7.540;2022-07-25T03:20:34;21.30;90.70
15455;DHT22;21057;51.024;7.540;2022-07-25T03:23:01;21.10;91.70
15455;DHT22;21057;51.024;7.540;2022-07-25T03:25:28;20.90;91.80
15455;DHT22;21057;51.024;7.540;2022-07-25T03:27:55;20.70;92.50
15455;DHT22;21057;51.024;7.540;2022-07-25T03:30:22;20.60;92.40
15455;DHT22;21057;51.024;7.540;2022-07-25T03:32:49;20.50;93.10
15455;DHT22;21057;51.024;7.540;2022-07-25T03:35:16;20.50;93.60
15455;DHT22;21057;51.024;7.540;2022-07-25T03:37:44;20.30;94.00
15455;DHT22;21057;51.024;7.540;2022-07-25T03:40:12;20.30;94.20
15455;DHT22;21057;51.024;7.540;2022-07-25T03:42:40;20.20;94.60
15455;DHT22;21057;51.024;7.540;2022-07-25T03:45:08;20.10;94.90
15455;DHT22;21057;51.024;7.540;2022-07-25T03:47:35;20.00;95.00
15455;DHT22;21057;51.024;7.540;2022-07-25T03:50:02;19.90;95.20
15455;DHT22;21057;51.024;7.540;2022-07-25T03:52:29;19.80;95.90
15455;DHT22;21057;51.024;7.540;2022-07-25T03:54:57;19.80;96.10
15455;DHT22;21057;51.024;7.540;2022-07-25T03:57:24;19.80;96.40
15455;DHT22;21057;51.024;7.540;2022-07-25T03:59:51;19.80;97.30
15455;DHT22;21057;51.024;7.540;2022-07-25T04:02:18;19.80;96.60
15455;DHT22;21057;51.024;7.540;2022-07-25T04:04:45;19.80;96.80
15455;DHT22;21057;51.024;7.540;2022-07-25T04:07:12;19.90;96.30
15455;DHT22;21057;51.024;7.540;2022-07-25T04:09:39;19.90;96.30
15455;DHT22;21057;51.024;7.540;2022-07-25T04:12:08;19.90;96.50
15455;DHT22;21057;51.024;7.540;2022-07-25T04:14:35;19.90;97.00
15455;DHT22;21057;51.024;7.540;2022-07-25T04:17:02;19.90;97.40
15455;DHT22;21057;51.024;7.540;2022-07-25T04:19:29;19.90;97.90
15455;DHT22;21057;51.024;7.540;2022-07-25T04:21:56;19.90;97.80
15455;DHT22;21057;51.024;7.540;2022-07-25T04:24:23;20.00;97.70
15455;DHT22;21057;51.024;7.540;2022-07-25T04:26:50;20.00;98.50
15455;DHT22;21057;51.024;7.540;2022-07-25T04:29:18;20.10;98.80
15455;DHT22;21057;51.024;7.540;2022-07-25T04:31:45;20.20;99.00
15455;DHT22;21057;51.024;7.540;2022-07-25T04:34:12;20.10;99.30
15455;DHT22;21057;51.024;7.540;2022-07-25T04:36:39;20.10;99.80
15455;DHT22;21057;51.024;7.540;2022-07-25T04:39:05;20.20;99.90
15455;DHT22;21057;51.024;7.540;2022-07-25T04:41:32;20.10;99.90
15455;DHT22;21057;51.024;7.540;2022-07-25T04:43:59;20.20;99.90
15455;DHT22;21057;51.024;7.540;2022-07-25T04:46:28;20.20;99.90
15455;DHT22;21057;51.024;7.540;2022-07-25T04:48:55;20.20;99.90
15455;DHT22;21057;51.024;7.540;2022-07-25T04:51:22;20.30;99.90
15455;DHT22;21057;51.024;7.540;2022-07-25T04:53:49;20.40;99.90
15455;DHT22;21057;51.024;7.540;2022-07-25T04:56:16;20.50;99.90
15455;DHT22;21057;51.024;7.540;2022-07-25T04:58:43;20.50;99.90
15455;DHT22;21057;51.024;7.540;2022-07-25T05:01:10;20.60;99.90
15455;DHT22;21057;51.024;7.540;2022-07-25T05:03:38;20.60;99.90
15455;DHT22;21057;51.024;7.540;2022-07-25T05:06:05;20.70;99.90
15455;DHT22;21057;51.024;7.540;2022-07-25T05:08:32;20.80;99.90
15455;DHT22;21057;51.024;7.540;2022-07-25T05:11:00;20.90;99.90
15455;DHT22;21057;51.024;7.540;2022-07-25T05:13:26;21.00;99.90
15455;DHT22;21057;51.024;7.540;2022-07-25T05:15:53;21.10;99.90
15455;DHT22;21057;51.024;7.540;2022-07-25T05:18:20;21.20;99.90
15455;DHT22;21057;51.024;7.540;2022-07-25T05:20:49;21.30;99.90
15455;DHT22;21057;51.024;7.540;2022-07-25T05:23:16;21.30;99.90
15455;DHT22;21057;51.024;7.540;2022-07-25T05:25:43;21.50;99.90
15455;DHT22;21057;51.024;7.540;2022-07-25T05:28:10;21.60;99.90
15455;DHT22;21057;51.024;7.540;2022-07-25T05:30:39;21.70;99.50
15455;DHT22;21057;51.024;7.540;2022-07-25T05:33:06;21.80;99.90
15455;DHT22;21057;51.024;7.540;2022-07-25T05:35:33;22.00;99.90
15455;DHT22;21057;51.024;7.540;2022-07-25T05:38:01;22.10;99.40
15455;DHT22;21057;51.024;7.540;2022-07-25T05:40:28;22.30;99.70
15455;DHT22;21057;51.024;7.540;2022-07-25T05:42:55;22.50;99.90
15455;DHT22;21057;51.024;7.540;2022-07-25T05:45:22;22.70;99.70
15455;DHT22;21057;51.024;7.540;2022-07-25T05:47:49;22.80;99.10
15455;DHT22;21057;51.024;7.540;2022-07-25T05:50:16;23.00;98.30
15455;DHT22;21057;51.024;7.540;2022-07-25T05:52:43;23.20;98.90
15455;DHT22;21057;51.024;7.540;2022-07-25T05:55:11;23.40;97.30
15455;DHT22;21057;51.024;7.540;2022-07-25T05:57:39;23.60;96.90
15455;DHT22;21057;51.024;7.540;2022-07-25T06:00:07;23.70;97.50
15455;DHT22;21057;51.024;7.540;2022-07-25T06:02:34;23.90;96.70
15455;DHT22;21057;51.024;7.540;2022-07-25T06:05:01;24.20;95.50
15455;DHT22;21057;51.024;7.540;2022-07-25T06:07:28;24.50;95.10
15455;DHT22;21057;51.024;7.540;2022-07-25T06:09:55;24.50;94.60
15455;DHT22;21057;51.024;7.540;2022-07-25T06:12:24;24.70;94.30
15455;DHT22;21057;51.024;7.540;2022-07-25T06:14:51;24.70;95.20
15455;DHT22;21057;51.024;7.540;2022-07-25T06:17:18;24.80;94.20
15455;DHT22;21057;51.024;7.540;2022-07-25T06:19:45;25.00;94.00
15455;DHT22;21057;51.024;7.540;2022-07-25T06:22:12;25.00;93.20
15455;DHT22;21057;51.024;7.540;2022-07-25T06:24:39;25.10;92.80
15455;DHT22;21057;51.024;7.540;2022-07-25T06:27:06;25.30;93.50
15455;DHT22;21057;51.024;7.540;2022-07-25T06:29:36;25.50;91.10
15455;DHT22;21057;51.024;7.540;2022-07-25T06:32:03;25.60;91.60
15455;DHT22;21057;51.024;7.540;2022-07-25T06:34:30;25.90;91.20
15455;DHT22;21057;51.024;7.540;2022-07-25T06:36:57;25.90;91.70
15455;DHT22;21057;51.024;7.540;2022-07-25T06:39:24;26.00;91.90
15455;DHT22;21057;51.024;7.540;2022-07-25T06:41:52;26.20;91.50
15455;DHT22;21057;51.024;7.540;2022-07-25T06:44:19;26.10;90.10
15455;DHT22;21057;51.024;7.540;2022-07-25T06:46:47;26.10;87.90
15455;DHT22;21057;51.024;7.540;2022-07-25T06:49:14;26.00;88.40
15455;DHT22;21057;51.024;7.540;2022-07-25T06:51:41;26.20;89.80
15455;DHT22;21057;51.024;7.540;2022-07-25T06:54:08;26.00;91.40
15455;DHT22;21057;51.024;7.540;2022-07-25T06:56:35;26.10;90.00
15455;DHT22;21057;51.024;7.540;2022-07-25T06:59:02;26.10;89.30
15455;DHT22;21057;51.024;7.540;2022-07-25T07:01:29;26.10;90.50
15455;DHT22;21057;51.024;7.540;2022-07-25T07:03:57;26.10;88.80
15455;DHT22;21057;51.024;7.540;2022-07-25T07:06:24;26.10;91.30
15455;DHT22;21057;51.024;7.540;2022-07-25T07:08:51;26.20;93.40
15455;DHT22;21057;51.024;7.540;2022-07-25T07:11:18;26.40;92.40
15455;DHT22;21057;51.024;7.540;2022-07-25T07:13:45;26.50;91.10
15455;DHT22;21057;51.024;7.540;2022-07-25T07:16:12;26.70;91.70
15455;DHT22;21057;51.024;7.540;2022-07-25T07:18:39;26.80;91.00
15455;DHT22;21057;51.024;7.540;2022-07-25T07:21:07;27.00;90.80
15455;DHT22;21057;51.024;7.540;2022-07-25T07:23:35;27.10;88.70
15455;DHT22;21057;51.024;7.540;2022-07-25T07:26:02;27.10;90.30
15455;DHT22;21057;51.024;7.540;2022-07-25T07:28:29;27.10;92.20
15455;DHT22;21057;51.024;7.540;2022-07-25T07:30:56;27.20;88.20
15455;DHT22;21057;51.024;7.540;2022-07-25T07:33:23;27.30;90.40
15455;DHT22;21057;51.024;7.540;2022-07-25T07:35:49;27.50;91.20
15455;DHT22;21057;51.024;7.540;2022-07-25T07:38:18;27.90;91.70
15455;DHT22;21057;51.024;7.540;2022-07-25T07:40:44;28.00;90.40
15455;DHT22;21057;51.024;7.540;2022-07-25T07:43:11;28.20;90.30
15455;DHT22;21057;51.024;7.540;2022-07-25T07:45:41;28.40;85.60
15455;DHT22;21057;51.024;7.540;2022-07-25T07:48:08;28.50;85.00
15455;DHT22;21057;51.024;7.540;2022-07-25T07:50:35;28.40;87.80
15455;DHT22;21057;51.024;7.540;2022-07-25T07:53:02;28.50;85.20
15455;DHT22;21057;51.024;7.540;2022-07-25T07:55:31;28.40;84.20
15455;DHT22;21057;51.024;7.540;2022-07-25T07:58:09;28.50;87.20
15455;DHT22;21057;51.024;7.540;2022-07-25T08:00:37;28.50;88.60
15455;DHT22;21057;51.024;7.540;2022-07-25T08:03:05;28.50;88.00
15455;DHT22;21057;51.024;7.540;2022-07-25T08:05:35;28.40;86.00
15455;DHT22;21057;51.024;7.540;2022-07-25T08:08:04;28.50;85.80
15455;DHT22;21057;51.024;7.540;2022-07-25T08:10:34;28.60;86.30
15455;DHT22;21057;51.024;7.540;2022-07-25T08:13:03;28.80;85.30
15455;DHT22;21057;51.024;7.540;2022-07-25T08:15:37;28.80;80.40
15455;DHT22;21057;51.024;7.540;2022-07-25T08:18:04;28.80;83.50
15455;DHT22;21057;51.024;7.540;2022-07-25T08:20:31;28.90;78.90
15455;DHT22;21057;51.024;7.540;2022-07-25T08:22:58;29.00;81.40
15455;DHT22;21057;51.024;7.540;2022-07-25T08:25:25;29.00;79.40
15455;DHT22;21057;51.024;7.540;2022-07-25T08:27:53;29.20;82.30
15455;DHT22;21057;51.024;7.540;2022-07-25T08:30:20;29.20;77.60
15455;DHT22;21057;51.024;7.540;2022-07-25T08:32:50;29.00;80.80
15455;DHT22;21057;51.024;7.540;2022-07-25T08:35:18;29.20;80.20
15455;DHT22;21057;51.024;7.540;2022-07-25T08:37:45;29.50;82.20
15455;DHT22;21057;51.024;7.540;2022-07-25T08:40:13;29.60;77.20
15455;DHT22;21057;51.024;7.540;2022-07-25T08:42:41;29.70;80.90
15455;DHT22;21057;51.024;7.540;2022-07-25T08:45:11;29.90;77.70
15455;DHT22;21057;51.024;7.540;2022-07-25T08:47:39;29.90;80.20
15455;DHT22;21057;51.024;7.540;2022-07-25T08:50:09;30.10;80.50
15455;DHT22;21057;51.024;7.540;2022-07-25T08:52:37;30.10;77.30
15455;DHT22;21057;51.024;7.540;2022-07-25T08:55:06;30.10;76.30
15455;DHT22;21057;51.024;7.540;2022-07-25T08:57:34;30.20;79.80
15455;DHT22;21057;51.024;7.540;2022-07-25T09:00:04;30.20;78.20
15455;DHT22;21057;51.024;7.540;2022-07-25T09:02:32;30.20;77.20
15455;DHT22;21057;51.024;7.540;2022-07-25T09:04:59;30.30;77.80
15455;DHT22;21057;51.024;7.540;2022-07-25T09:07:31;30.40;78.70
15455;DHT22;21057;51.024;7.540;2022-07-25T09:09:59;30.50;78.00
15455;DHT22;21057;51.024;7.540;2022-07-25T09:12:36;30.60;76.90
15455;DHT22;21057;51.024;7.540;2022-07-25T09:15:04;30.60;80.10
15455;DHT22;21057;51.024;7.540;2022-07-25T09:17:32;30.40;75.00
15455;DHT22;21057;51.024;7.540;2022-07-25T09:19:59;30.40;73.40
15455;DHT22;21057;51.024;7.540;2022-07-25T09:22:26;30.20;75.50
15455;DHT22;21057;51.024;7.540;2022-07-25T09:24:54;30.10;73.50
15455;DHT22;21057;51.024;7.540;2022-07-25T09:27:21;30.10;78.30
15455;DHT22;21057;51.024;7.540;2022-07-25T09:29:48;30.20;78.50
15455;DHT22;21057;51.024;7.540;2022-07-25T09:32:18;30.20;75.40
15455;DHT22;21057;51.024;7.540;2022-07-25T09:34:48;30.30;75.10
15455;DHT22;21057;51.024;7.540;2022-07-25T09:37:17;30.60;75.40
15455;DHT22;21057;51.024;7.540;2022-07-25T09:39:47;30.60;75.90
15455;DHT22;21057;51.024;7.540;2022-07-25T09:42:20;30.60;74.20
15455;DHT22;21057;51.024;7.540;2022-07-25T09:45:03;30.50;73.50
15455;DHT22;21057;51.024;7.540;2022-07-25T09:47:31;30.50;72.80
15455;DHT22;21057;51.024;7.540;2022-07-25T09:49:59;30.30;71.90
15455;DHT22;21057;51.024;7.540;2022-07-25T09:52:26;30.60;71.80
15455;DHT22;21057;51.024;7.540;2022-07-25T09:54:53;30.70;72.10
15455;DHT22;21057;51.024;7.540;2022-07-25T09:57:20;30.90;72.90
15455;DHT22;21057;51.024;7.540;2022-07-25T09:59:48;31.00;69.30
15455;DHT22;21057;51.024;7.540;2022-07-25T10:02:23;30.80;69.40
15455;DHT22;21057;51.024;7.540;2022-07-25T10:05:02;30.90;71.50
15455;DHT22;21057;51.024;7.540;2022-07-25T10:07:35;31.30;70.70
15455;DHT22;21057;51.024;7.540;2022-07-25T10:10:03;31.10;67.90
15455;DHT22;21057;51.024;7.540;2022-07-25T10:12:30;31.00;70.00
15455;DHT22;21057;51.024;7.540;2022-07-25T10:15:06;31.00;71.60
15455;DHT22;21057;51.024;7.540;2022-07-25T10:17:35;31.10;69.00
15455;DHT22;21057;51.024;7.540;2022-07-25T10:20:04;31.00;68.70
15455;DHT22;21057;51.024;7.540;2022-07-25T10:22:36;31.20;71.20
15455;DHT22;21057;51.024;7.540;2022-07-25T10:25:10;31.60;72.10
15455;DHT22;21057;51.024;7.540;2022-07-25T10:27:42;31.80;68.00
15455;DHT22;21057;51.024;7.540;2022-07-25T10:30:18;31.90;69.40
15455;DHT22;21057;51.024;7.540;2022-07-25T10:32:48;31.40;68.90
15455;DHT22;21057;51.024;7.540;2022-07-25T10:35:17;31.20;70.60
15455;DHT22;21057;51.024;7.540;2022-07-25T10:37:44;30.90;70.20
15455;DHT22;21057;51.024;7.540;2022-07-25T10:40:27;30.70;70.10
15455;DHT22;21057;51.024;7.540;2022-07-25T10:43:10;30.60;71.00
15455;DHT22;21057;51.024;7.540;2022-07-25T10:45:39;30.30;73.20
15455;DHT22;21057;51.024;7.540;2022-07-25T10:48:07;30.10;70.80
15455;DHT22;21057;51.024;7.540;2022-07-25T10:50:45;30.00;72.20
15455;DHT22;21057;51.024;7.540;2022-07-25T10:53:13;29.70;70.50
15455;DHT22;21057;51.024;7.540;2022-07-25T10:55:40;29.50;71.60
15455;DHT22;21057;51.024;7.540;2022-07-25T10:58:07;29.30;70.70
15455;DHT22;21057;51.024;7.540;2022-07-25T11:00:33;29.20;72.50
15455;DHT22;21057;51.024;7.540;2022-07-25T11:03:08;29.20;72.40
15455;DHT22;21057;51.024;7.540;2022-07-25T11:05:44;29.20;74.60
15455;DHT22;21057;51.024;7.540;2022-07-25T11:08:12;29.10;76.10
15455;DHT22;21057;51.024;7.540;2022-07-25T11:10:39;28.80;78.90
15455;DHT22;21057;51.024;7.540;2022-07-25T11:13:09;28.60;81.10
15455;DHT22;21057;51.024;7.540;2022-07-25T11:15:37;28.40;80.80
15455;DHT22;21057;51.024;7.540;2022-07-25T11:18:04;28.20;89.50
15455;DHT22;21057;51.024;7.540;2022-07-25T11:20:31;28.20;90.50
15455;DHT22;21057;51.024;7.540;2022-07-25T11:22:59;28.10;90.20
15455;DHT22;21057;51.024;7.540;2022-07-25T11:25:26;28.00;91.70
15455;DHT22;21057;51.024;7.540;2022-07-25T11:27:57;28.00;90.50
15455;DHT22;21057;51.024;7.540;2022-07-25T11:30:25;28.00;91.60
15455;DHT22;21057;51.024;7.540;2022-07-25T11:32:57;28.10;89.60
15455;DHT22;21057;51.024;7.540;2022-07-25T11:35:27;28.30;87.30
15455;DHT22;21057;51.024;7.540;2022-07-25T11:37:55;28.70;90.80
15455;DHT22;21057;51.024;7.540;2022-07-25T11:40:24;28.70;90.60
15455;DHT22;21057;51.024;7.540;2022-07-25T11:42:52;28.70;88.30
15455;DHT22;21057;51.024;7.540;2022-07-25T11:45:20;28.60;85.90
15455;DHT22;21057;51.024;7.540;2022-07-25T11:47:49;28.90;90.40
15455;DHT22;21057;51.024;7.540;2022-07-25T11:50:16;29.60;90.00
15455;DHT22;21057;51.024;7.540;2022-07-25T11:52:43;29.90;83.80
15455;DHT22;21057;51.024;7.540;2022-07-25T11:55:13;30.10;82.90
15455;DHT22;21057;51.024;7.540;2022-07-25T11:57:45;30.30;78.10
15455;DHT22;21057;51.024;7.540;2022-07-25T12:00:17;30.50;82.50
15455;DHT22;21057;51.024;7.540;2022-07-25T12:02:45;30.70;78.70
15455;DHT22;21057;51.024;7.540;2022-07-25T12:05:14;30.70;80.70
15455;DHT22;21057;51.024;7.540;2022-07-25T12:07:43;31.10;81.40
15455;DHT22;21057;51.024;7.540;2022-07-25T12:10:13;31.40;77.20
15455;DHT22;21057;51.024;7.540;2022-07-25T12:12:49;30.90;75.80
15455;DHT22;21057;51.024;7.540;2022-07-25T12:15:18;30.60;76.40
15455;DHT22;21057;51.024;7.540;2022-07-25T12:17:46;30.40;78.20
15455;DHT22;21057;51.024;7.540;2022-07-25T12:20:15;29.90;77.70
15455;DHT22;21057;51.024;7.540;2022-07-25T12:22:42;29.70;80.20
15455;DHT22;21057;51.024;7.540;2022-07-25T12:25:10;29.50;80.90
15455;DHT22;21057;51.024;7.540;2022-07-25T12:27:37;29.50;81.30
15455;DHT22;21057;51.024;7.540;2022-07-25T12:30:07;29.80;80.50
15455;DHT22;21057;51.024;7.540;2022-07-25T12:32:35;30.20;80.00
15455;DHT22;21057;51.024;7.540;2022-07-25T12:35:02;30.20;79.70
15455;DHT22;21057;51.024;7.540;2022-07-25T12:37:29;29.90;78.30
15455;DHT22;21057;51.024;7.540;2022-07-25T12:39:56;29.60;78.20
15455;DHT22;21057;51.024;7.540;2022-07-25T12:42:24;29.30;79.80
15455;DHT22;21057;51.024;7.540;2022-07-25T12:44:51;29.20;79.10
15455;DHT22;21057;51.024;7.540;2022-07-25T12:47:20;29.30;80.90
15455;DHT22;21057;51.024;7.540;2022-07-25T12:49:47;29.40;81.20
15455;DHT22;21057;51.024;7.540;2022-07-25T12:52:14;29.80;79.60
15455;DHT22;21057;51.024;7.540;2022-07-25T12:54:41;29.60;80.80
15455;DHT22;21057;51.024;7.540;2022-07-25T12:57:09;29.30;81.40
15455;DHT22;21057;51.024;7.540;2022-07-25T12:59:36;29.20;81.20
15455;DHT22;21057;51.024;7.540;2022-07-25T13:02:04;29.20;82.60
15455;DHT22;21057;51.024;7.540;2022-07-25T13:04:32;29.30;79.90
15455;DHT22;21057;51.024;7.540;2022-07-25T13:06:59;29.30;80.30
15455;DHT22;21057;51.024;7.540;2022-07-25T13:09:27;29.40;79.80
15455;DHT22;21057;51.024;7.540;2022-07-25T13:11:56;29.60;80.50
15455;DHT22;21057;51.024;7.540;2022-07-25T13:14:23;29.90;79.30
15455;DHT22;21057;51.024;7.540;2022-07-25T13:16:50;30.30;78.40
15455;DHT22;21057;51.024;7.540;2022-07-25T13:19:17;29.70;78.20
15455;DHT22;21057;51.024;7.540;2022-07-25T13:21:45;29.70;77.00
15455;DHT22;21057;51.024;7.540;2022-07-25T13:24:12;29.70;78.10
15455;DHT22;21057;51.024;7.540;2022-07-25T13:26:39;29.90;75.80
15455;DHT22;21057;51.024;7.540;2022-07-25T13:29:06;30.10;77.90
15455;DHT22;21057;51.024;7.540;2022-07-25T13:31:36;29.70;74.70
15455;DHT22;21057;51.024;7.540;2022-07-25T13:34:03;29.40;75.30
15455;DHT22;21057;51.024;7.540;2022-07-25T13:36:31;29.10;77.60
15455;DHT22;21057;51.024;7.540;2022-07-25T13:38:59;28.30;77.40
15455;DHT22;21057;51.024;7.540;2022-07-25T13:41:26;28.50;78.60
15455;DHT22;21057;51.024;7.540;2022-07-25T13:43:53;28.60;77.70
15455;DHT22;21057;51.024;7.540;2022-07-25T13:46:21;28.90;78.40
15455;DHT22;21057;51.024;7.540;2022-07-25T13:48:48;28.30;74.90
15455;DHT22;21057;51.024;7.540;2022-07-25T13:51:15;28.20;77.30
15455;DHT22;21057;51.024;7.540;2022-07-25T13:53:42;28.30;75.40
15455;DHT22;21057;51.024;7.540;2022-07-25T13:56:11;28.30;76.50
15455;DHT22;21057;51.024;7.540;2022-07-25T13:58:39;28.90;76.10
15455;DHT22;21057;51.024;7.540;2022-07-25T14:01:06;29.10;75.70
15455;DHT22;21057;51.024;7.540;2022-07-25T14:03:33;28.70;74.90
15455;DHT22;21057;51.024;7.540;2022-07-25T14:06:01;28.70;77.60
15455;DHT22;21057;51.024;7.540;2022-07-25T14:08:28;28.20;75.10
15455;DHT22;21057;51.024;7.540;2022-07-25T14:10:55;27.80;76.80
15455;DHT22;21057;51.024;7.540;2022-07-25T14:13:23;28.20;77.70
15455;DHT22;21057;51.024;7.540;2022-07-25T14:15:50;28.40;77.60
15455;DHT22;21057;51.024;7.540;2022-07-25T14:18:17;28.80;77.50
15455;DHT22;21057;51.024;7.540;2022-07-25T14:20:44;29.00;75.80
15455;DHT22;21057;51.024;7.540;2022-07-25T14:23:11;28.70;75.60
15455;DHT22;21057;51.024;7.540;2022-07-25T14:25:38;28.60;76.60
15455;DHT22;21057;51.024;7.540;2022-07-25T14:28:05;28.60;77.10
15455;DHT22;21057;51.024;7.540;2022-07-25T14:30:34;28.80;78.50
15455;DHT22;21057;51.024;7.540;2022-07-25T14:33:00;28.70;76.30
15455;DHT22;21057;51.024;7.540;2022-07-25T14:35:27;28.50;77.70
15455;DHT22;21057;51.024;7.540;2022-07-25T14:37:54;28.50;79.00
15455;DHT22;21057;51.024;7.540;2022-07-25T14:40:21;28.30;78.40
15455;DHT22;21057;51.024;7.540;2022-07-25T14:42:48;28.00;78.80
15455;DHT22;21057;51.024;7.540;2022-07-25T14:45:15;27.60;79.50
15455;DHT22;21057;51.024;7.540;2022-07-25T14:47:44;27.30;81.40
15455;DHT22;21057;51.024;7.540;2022-07-25T14:50:11;27.40;80.80
15455;DHT22;21057;51.024;7.540;2022-07-25T14:52:38;27.10;81.00
15455;DHT22;21057;51.024;7.540;2022-07-25T14:55:06;26.90;81.90
15455;DHT22;21057;51.024;7.540;2022-07-25T14:57:33;26.90;81.60
15455;DHT22;21057;51.024;7.540;2022-07-25T15:00:01;27.70;80.50
15455;DHT22;21057;51.024;7.540;2022-07-25T15:02:29;28.90;80.70
15455;DHT22;21057;51.024;7.540;2022-07-25T15:04:58;29.80;77.60
15455;DHT22;21057;51.024;7.540;2022-07-25T15:07:25;30.30;74.50
15455;DHT22;21057;51.024;7.540;2022-07-25T15:09:52;30.00;75.10
15455;DHT22;21057;51.024;7.540;2022-07-25T15:12:19;30.00;75.00
15455;DHT22;21057;51.024;7.540;2022-07-25T15:14:46;28.80;73.20
15455;DHT22;21057;51.024;7.540;2022-07-25T15:17:13;28.10;76.30
15455;DHT22;21057;51.024;7.540;2022-07-25T15:19:40;28.10;76.40
15455;DHT22;21057;51.024;7.540;2022-07-25T15:22:08;27.50;76.20
15455;DHT22;21057;51.024;7.540;2022-07-25T15:24:35;27.30;78.50
15455;DHT22;21057;51.024;7.540;2022-07-25T15:27:02;27.00;78.40
15455;DHT22;21057;51.024;7.540;2022-07-25T15:29:29;26.80;79.60
15455;DHT22;21057;51.024;7.540;2022-07-25T15:31:56;26.90;78.40
15455;DHT22;21057;51.024;7.540;2022-07-25T15:34:23;26.80;79.70